x

Sentry Shoal (46131) Wave Buoy

2:00 - Wed 22nd Feb 2017 All times are PST. -8 hours from GMT.

  • Sig Wave height 0.7ft
  • Peak Period 2s
  • Wind
    7mph, 9mph gusts
  • Sea Temp 44°f
  • Luft Temp 40°f
  • Sea Pressure 1021.1mb
  • Sentry Shoal
  • Sentry Shoal

More Historic Weather Station data

Upgrade to MSW Pro to gain access to the past 30 days of data for over 8000 Wavebouys and Weather Stations around the globe.

Join Pro

Comparision Forecast

View Surf forecast
   
Mi 02/22 2:00 0.7ft 2s 7 9 mph 1021.1mb 44f 40f
1:00 1ft 2s 9 11 mph 1020.8mb 44f 40f
12:00 1ft 2s 13 16 mph 1020.3mb 44f 40f
Di 02/21 11:00 1.3ft 3s 13 18 mph 1019.8mb 44f 40f
10:00 0.3ft 2s 13 20 mph 1019.3mb 44f 41f
9:00 0.3ft 2s 9 11 mph 1018.7mb 44f 42f
8:00 0.3ft 2s 7 9 mph 1017.8mb 44f 43f
7:00 0.3ft 3s 4 9 mph 1017.4mb 44f 45f
6:00 0.3ft 3s 4 7 mph 1016.6mb 45f 45f
5:00 0.3ft 2s 4 7 mph 1016mb 45f 45f
4:00 0.3ft 2s 4
mph
1015.5mb 45f 45f
3:00 0.3ft 2s 4
mph
1015mb 45f 46f
2:00 0.3ft 2s 2 4 mph 1014.5mb 45f 44f
1:00 0.7ft 2s 9 13 mph 1014.1mb 45f 43f
12:00 0.7ft 2s 9 11 mph 1014mb 45f 41f
11:00 0.7ft 2s 11 13 mph 1013.6mb 44f 40f
10:00 0.7ft 2s 11 13 mph 1012.8mb 44f 39f
9:00 1ft 2s 13
mph
1012mb 44f 38f
8:00 0.7ft 2s 13 16 mph 1011.3mb 44f 38f
7:00 1ft 3s 13 16 mph 1010.4mb 44f 38f
6:00 1ft 3s 13 18 mph 1009.7mb 44f 38f
5:00 0.7ft 2s 16 18 mph 1009.3mb 44f 39f
4:00 0.3ft 2s 11 13 mph 1009.2mb 44f 40f
3:00 0.3ft 2s 11
mph
1009.1mb 44f 40f
2:00 0.3ft 2s 11 13 mph 1008.8mb 44f 40f
1:00 0.7ft 2s 9
mph
1008.5mb 44f 40f
12:00 0.7ft 2s 11 13 mph 1008mb 44f 41f
Mo 02/20 11:00 0.7ft 2s 9 11 mph 1007.5mb 44f 42f
10:00 0.3ft 2s 9 11 mph 1007.1mb 44f 42f
9:00 0.3ft 4s 7 9 mph 1007mb 44f 42f
8:00 0.3ft 4s 4
mph
1006.6mb 44f 43f
7:00 0.3ft 4s 4
mph
1006.2mb 44f 43f
6:00 0.3ft 4s 2 4 mph 1005.6mb 45f 44f
5:00 0.3ft 4s 4
mph
1005.2mb 45f 44f
4:00 0.3ft 2s 2
mph
1004.7mb 45f 46f
3:00 0.3ft 2s 4 7 mph 1004.1mb 45f 44f
2:00 0.7ft 2s 9
mph
1003.5mb 45f 43f
1:00 0.7ft 2s 11 13 mph 1003.1mb 45f 42f
12:00 0.7ft 2s 11 13 mph 1002.9mb 45f 42f
11:00 0.7ft 2s 11 13 mph 1002.6mb 44f 41f
10:00 0.7ft 2s 11
mph
1002.4mb 44f 40f
9:00 0.7ft 2s 9 11 mph 1001.8mb 44f 40f
8:00 0.7ft 2s 11 13 mph 1001.4mb 44f 40f
7:00 0.7ft 2s 9 11 mph 1001.1mb 44f 40f
6:00 0.7ft 2s 9
mph
1001.1mb 44f 41f
5:00 0.7ft 3s 9
mph
1000.9mb 44f 41f
4:00 0.7ft 3s 7 9 mph 1001mb 44f 41f
3:00 1ft 4s 4
mph
1001.2mb 45f 40f
2:00 1ft 4s 7 9 mph 1001.1mb 45f 40f
1:00 1ft 4s 4
mph
1000.8mb 45f 41f
12:00 1.3ft 5s 4 7 mph 1000.1mb 45f 40f
So 02/19 11:00 2ft 4s 9 11 mph 999.5mb 45f 40f
10:00 2ft 5s 13
mph
998.9mb 45f 40f
9:00 2ft 5s 13 18 mph 998.4mb 45f 40f
8:00 1.6ft 5s 11 13 mph 997.8mb 45f 41f
7:00 1.3ft 5s 11 13 mph 997.5mb 45f 40f
6:00 1.6ft 5s 11 13 mph 997.4mb 45f 40f
5:00 2ft 4s 4 7 mph 996.7mb 45f 43f
4:00 1ft 4s 13 20 mph 996.4mb 45f 44f
3:00 1ft 3s 9 11 mph 996.4mb 45f 43f
2:00 0.7ft 2s 9 11 mph 996.1mb 46f 42f
1:00 0.3ft 3s 9 11 mph 996.1mb 45f 42f
12:00 0.7ft 2s 9 13 mph 996.2mb 46f 41f
11:00 0.7ft 3s 9 11 mph 996.2mb 46f 41f
10:00 1ft 3s 11 13 mph 995.8mb 46f 41f
9:00 1.3ft 3s 9
mph
995.6mb 46f 41f
8:00 1ft 2s 11 13 mph 995.4mb 45f 41f
7:00 0.7ft 2s 7 11 mph 995.2mb 45f 41f
6:00 0.7ft 2s 4
mph
994.8mb 45f 41f
5:00 0.7ft 2s 2 4 mph 994.7mb 45f 42f
4:00 1ft 3s 4
mph
994.8mb 45f 42f
3:00 0.7ft 2s 2 4 mph 995.1mb 45f 41f
2:00 0.7ft 2s 4 7 mph 995.4mb 45f 41f
1:00 0.3ft 4s 9 11 mph 995.3mb 44f 42f
12:00 0.3ft 4s  -  2 mph 995.7mb 44f 42f
Sa 02/18 11:00 0.3ft 2s 4 7 mph 995.9mb 44f 42f